sensor_id;sensor_type;location;lat;lon;timestamp;P1;durP1;ratioP1;P2;durP2;ratioP2
15480;SDS011;7842;50.904;6.670;2023-06-01T00:00:58;6.78;;;4.15;;
15480;SDS011;7842;50.904;6.670;2023-06-01T00:03:26;5.20;;;3.65;;
15480;SDS011;7842;50.904;6.670;2023-06-01T00:05:54;6.53;;;4.07;;
15480;SDS011;7842;50.904;6.670;2023-06-01T00:08:21;6.00;;;3.73;;
15480;SDS011;7842;50.904;6.670;2023-06-01T00:10:47;7.05;;;3.90;;
15480;SDS011;7842;50.904;6.670;2023-06-01T00:13:13;7.05;;;4.10;;
15480;SDS011;7842;50.904;6.670;2023-06-01T00:15:40;6.38;;;4.00;;
15480;SDS011;7842;50.904;6.670;2023-06-01T00:18:05;5.63;;;4.15;;
15480;SDS011;7842;50.904;6.670;2023-06-01T00:20:33;6.20;;;3.75;;
15480;SDS011;7842;50.904;6.670;2023-06-01T00:22:59;6.00;;;3.70;;
15480;SDS011;7842;50.904;6.670;2023-06-01T00:25:28;5.17;;;3.50;;
15480;SDS011;7842;50.904;6.670;2023-06-01T00:27:53;6.33;;;3.73;;
15480;SDS011;7842;50.904;6.670;2023-06-01T00:30:22;5.90;;;3.57;;
15480;SDS011;7842;50.904;6.670;2023-06-01T00:32:50;5.70;;;4.00;;
15480;SDS011;7842;50.904;6.670;2023-06-01T00:35:16;6.70;;;3.80;;
15480;SDS011;7842;50.904;6.670;2023-06-01T00:37:41;6.23;;;4.27;;
15480;SDS011;7842;50.904;6.670;2023-06-01T00:40:07;5.68;;;4.18;;
15480;SDS011;7842;50.904;6.670;2023-06-01T00:42:33;5.18;;;3.67;;
15480;SDS011;7842;50.904;6.670;2023-06-01T00:44:59;6.27;;;3.77;;
15480;SDS011;7842;50.904;6.670;2023-06-01T00:47:24;6.63;;;3.93;;
15480;SDS011;7842;50.904;6.670;2023-06-01T00:49:50;6.30;;;3.70;;
15480;SDS011;7842;50.904;6.670;2023-06-01T00:52:15;5.60;;;3.50;;
15480;SDS011;7842;50.904;6.670;2023-06-01T00:54:42;5.93;;;3.63;;
15480;SDS011;7842;50.904;6.670;2023-06-01T00:57:07;4.80;;;3.60;;
15480;SDS011;7842;50.904;6.670;2023-06-01T00:59:34;4.93;;;3.70;;
15480;SDS011;7842;50.904;6.670;2023-06-01T01:01:59;6.05;;;3.55;;
15480;SDS011;7842;50.904;6.670;2023-06-01T01:04:29;5.93;;;3.25;;
15480;SDS011;7842;50.904;6.670;2023-06-01T01:09:49;5.07;;;3.40;;
15480;SDS011;7842;50.904;6.670;2023-06-01T01:12:31;4.53;;;3.08;;
15480;SDS011;7842;50.904;6.670;2023-06-01T01:17:36;5.30;;;3.47;;
15480;SDS011;7842;50.904;6.670;2023-06-01T01:20:27;3.63;;;3.10;;
15480;SDS011;7842;50.904;6.670;2023-06-01T01:23:05;6.18;;;3.60;;
15480;SDS011;7842;50.904;6.670;2023-06-01T01:28:46;5.88;;;3.22;;
15480;SDS011;7842;50.904;6.670;2023-06-01T01:31:13;5.45;;;3.30;;
15480;SDS011;7842;50.904;6.670;2023-06-01T01:33:41;6.00;;;3.60;;
15480;SDS011;7842;50.904;6.670;2023-06-01T01:36:07;5.18;;;3.22;;
15480;SDS011;7842;50.904;6.670;2023-06-01T01:38:35;5.80;;;3.53;;
15480;SDS011;7842;50.904;6.670;2023-06-01T01:41:01;5.45;;;3.42;;
15480;SDS011;7842;50.904;6.670;2023-06-01T01:43:27;6.93;;;3.35;;
15480;SDS011;7842;50.904;6.670;2023-06-01T01:45:57;5.03;;;3.50;;
15480;SDS011;7842;50.904;6.670;2023-06-01T01:54:15;5.10;;;3.33;;
15480;SDS011;7842;50.904;6.670;2023-06-01T01:56:42;5.60;;;3.50;;
15480;SDS011;7842;50.904;6.670;2023-06-01T01:59:09;5.03;;;3.42;;
15480;SDS011;7842;50.904;6.670;2023-06-01T02:01:38;5.00;;;3.65;;
15480;SDS011;7842;50.904;6.670;2023-06-01T02:04:09;6.15;;;3.80;;
15480;SDS011;7842;50.904;6.670;2023-06-01T02:06:36;4.68;;;3.67;;
15480;SDS011;7842;50.904;6.670;2023-06-01T02:09:02;5.28;;;3.50;;
15480;SDS011;7842;50.904;6.670;2023-06-01T02:11:31;5.68;;;3.63;;
15480;SDS011;7842;50.904;6.670;2023-06-01T02:13:58;5.55;;;3.53;;
15480;SDS011;7842;50.904;6.670;2023-06-01T02:16:23;5.50;;;3.60;;
15480;SDS011;7842;50.904;6.670;2023-06-01T02:18:49;4.90;;;3.37;;
15480;SDS011;7842;50.904;6.670;2023-06-01T02:21:15;5.55;;;3.83;;
15480;SDS011;7842;50.904;6.670;2023-06-01T02:23:40;5.72;;;3.88;;
15480;SDS011;7842;50.904;6.670;2023-06-01T02:26:07;6.15;;;4.15;;
15480;SDS011;7842;50.904;6.670;2023-06-01T02:28:38;6.43;;;3.92;;
15480;SDS011;7842;50.904;6.670;2023-06-01T02:31:06;6.82;;;4.32;;
15480;SDS011;7842;50.904;6.670;2023-06-01T02:33:32;6.22;;;4.43;;
15480;SDS011;7842;50.904;6.670;2023-06-01T02:35:58;7.30;;;4.22;;
15480;SDS011;7842;50.904;6.670;2023-06-01T02:38:25;6.50;;;4.40;;
15480;SDS011;7842;50.904;6.670;2023-06-01T02:40:51;7.53;;;4.85;;
15480;SDS011;7842;50.904;6.670;2023-06-01T02:43:16;6.80;;;4.55;;
15480;SDS011;7842;50.904;6.670;2023-06-01T02:45:42;7.25;;;4.35;;
15480;SDS011;7842;50.904;6.670;2023-06-01T02:48:08;5.95;;;4.57;;
15480;SDS011;7842;50.904;6.670;2023-06-01T02:50:34;6.35;;;4.78;;
15480;SDS011;7842;50.904;6.670;2023-06-01T02:53:00;7.60;;;4.55;;
15480;SDS011;7842;50.904;6.670;2023-06-01T02:55:26;7.32;;;4.72;;
15480;SDS011;7842;50.904;6.670;2023-06-01T02:57:52;8.27;;;5.00;;
15480;SDS011;7842;50.904;6.670;2023-06-01T03:00:17;8.80;;;5.30;;
15480;SDS011;7842;50.904;6.670;2023-06-01T03:02:46;9.37;;;5.70;;
15480;SDS011;7842;50.904;6.670;2023-06-01T03:05:12;9.57;;;5.55;;
15480;SDS011;7842;50.904;6.670;2023-06-01T03:07:39;9.67;;;5.47;;
15480;SDS011;7842;50.904;6.670;2023-06-01T03:10:06;8.07;;;5.80;;
15480;SDS011;7842;50.904;6.670;2023-06-01T03:12:32;8.23;;;5.50;;
15480;SDS011;7842;50.904;6.670;2023-06-01T03:14:58;8.80;;;5.67;;
15480;SDS011;7842;50.904;6.670;2023-06-01T03:17:23;7.65;;;5.80;;
15480;SDS011;7842;50.904;6.670;2023-06-01T03:19:49;7.95;;;5.65;;
15480;SDS011;7842;50.904;6.670;2023-06-01T03:22:15;8.27;;;5.57;;
15480;SDS011;7842;50.904;6.670;2023-06-01T03:24:40;9.37;;;5.70;;
15480;SDS011;7842;50.904;6.670;2023-06-01T03:27:06;9.50;;;6.70;;
15480;SDS011;7842;50.904;6.670;2023-06-01T03:29:33;10.27;;;7.05;;
15480;SDS011;7842;50.904;6.670;2023-06-01T03:31:58;10.10;;;7.03;;
15480;SDS011;7842;50.904;6.670;2023-06-01T03:34:24;11.47;;;7.90;;
15480;SDS011;7842;50.904;6.670;2023-06-01T03:36:52;11.00;;;8.15;;
15480;SDS011;7842;50.904;6.670;2023-06-01T03:39:18;13.13;;;9.05;;
15480;SDS011;7842;50.904;6.670;2023-06-01T03:41:44;11.83;;;8.73;;
15480;SDS011;7842;50.904;6.670;2023-06-01T03:44:10;14.23;;;9.23;;
15480;SDS011;7842;50.904;6.670;2023-06-01T03:46:36;12.50;;;9.55;;
15480;SDS011;7842;50.904;6.670;2023-06-01T03:49:02;14.35;;;9.32;;
15480;SDS011;7842;50.904;6.670;2023-06-01T03:51:29;14.75;;;9.77;;
15480;SDS011;7842;50.904;6.670;2023-06-01T03:53:55;14.20;;;9.50;;
15480;SDS011;7842;50.904;6.670;2023-06-01T03:56:21;16.75;;;9.57;;
15480;SDS011;7842;50.904;6.670;2023-06-01T03:58:47;14.18;;;9.60;;
15480;SDS011;7842;50.904;6.670;2023-06-01T04:01:13;13.68;;;9.50;;
15480;SDS011;7842;50.904;6.670;2023-06-01T04:03:42;14.23;;;9.77;;
15480;SDS011;7842;50.904;6.670;2023-06-01T04:06:08;14.53;;;10.43;;
15480;SDS011;7842;50.904;6.670;2023-06-01T04:08:38;14.55;;;9.95;;
15480;SDS011;7842;50.904;6.670;2023-06-01T04:11:13;15.07;;;10.68;;
15480;SDS011;7842;50.904;6.670;2023-06-01T04:13:39;16.25;;;10.38;;
15480;SDS011;7842;50.904;6.670;2023-06-01T04:16:05;14.93;;;10.88;;
15480;SDS011;7842;50.904;6.670;2023-06-01T04:18:31;15.95;;;11.55;;
15480;SDS011;7842;50.904;6.670;2023-06-01T04:20:57;16.33;;;10.90;;
15480;SDS011;7842;50.904;6.670;2023-06-01T04:23:22;18.27;;;12.00;;
15480;SDS011;7842;50.904;6.670;2023-06-01T04:25:48;17.08;;;11.05;;
15480;SDS011;7842;50.904;6.670;2023-06-01T04:28:18;17.07;;;11.60;;
15480;SDS011;7842;50.904;6.670;2023-06-01T04:30:43;17.00;;;11.13;;
15480;SDS011;7842;50.904;6.670;2023-06-01T04:33:09;17.60;;;11.65;;
15480;SDS011;7842;50.904;6.670;2023-06-01T04:35:35;16.88;;;11.30;;
15480;SDS011;7842;50.904;6.670;2023-06-01T04:38:02;18.65;;;11.55;;
15480;SDS011;7842;50.904;6.670;2023-06-01T04:40:28;18.98;;;11.85;;
15480;SDS011;7842;50.904;6.670;2023-06-01T04:42:53;16.65;;;11.52;;
15480;SDS011;7842;50.904;6.670;2023-06-01T04:45:25;16.33;;;12.20;;
15480;SDS011;7842;50.904;6.670;2023-06-01T04:47:51;16.92;;;11.85;;
15480;SDS011;7842;50.904;6.670;2023-06-01T04:50:16;15.38;;;11.20;;
15480;SDS011;7842;50.904;6.670;2023-06-01T04:52:42;17.70;;;12.18;;
15480;SDS011;7842;50.904;6.670;2023-06-01T04:55:09;19.48;;;13.07;;
15480;SDS011;7842;50.904;6.670;2023-06-01T04:57:36;18.83;;;12.60;;
15480;SDS011;7842;50.904;6.670;2023-06-01T05:00:04;18.63;;;13.30;;
15480;SDS011;7842;50.904;6.670;2023-06-01T05:02:36;18.75;;;13.43;;
15480;SDS011;7842;50.904;6.670;2023-06-01T05:05:02;17.60;;;12.30;;
15480;SDS011;7842;50.904;6.670;2023-06-01T05:07:29;17.55;;;12.82;;
15480;SDS011;7842;50.904;6.670;2023-06-01T05:09:55;19.77;;;13.63;;
15480;SDS011;7842;50.904;6.670;2023-06-01T05:12:21;19.95;;;13.43;;
15480;SDS011;7842;50.904;6.670;2023-06-01T05:14:46;19.93;;;13.27;;
15480;SDS011;7842;50.904;6.670;2023-06-01T05:17:12;19.58;;;13.02;;
15480;SDS011;7842;50.904;6.670;2023-06-01T05:19:37;17.93;;;12.80;;
15480;SDS011;7842;50.904;6.670;2023-06-01T05:22:04;20.85;;;13.93;;
15480;SDS011;7842;50.904;6.670;2023-06-01T05:24:29;21.67;;;15.02;;
15480;SDS011;7842;50.904;6.670;2023-06-01T05:26:55;22.23;;;15.90;;
15480;SDS011;7842;50.904;6.670;2023-06-01T05:29:21;24.17;;;17.80;;
15480;SDS011;7842;50.904;6.670;2023-06-01T05:31:46;26.80;;;17.70;;
15480;SDS011;7842;50.904;6.670;2023-06-01T05:34:13;26.10;;;18.90;;
15480;SDS011;7842;50.904;6.670;2023-06-01T05:36:39;27.67;;;19.30;;
15480;SDS011;7842;50.904;6.670;2023-06-01T05:39:04;28.13;;;21.23;;
15480;SDS011;7842;50.904;6.670;2023-06-01T05:41:30;30.55;;;21.33;;
15480;SDS011;7842;50.904;6.670;2023-06-01T05:43:56;32.72;;;23.40;;
15480;SDS011;7842;50.904;6.670;2023-06-01T05:46:22;29.35;;;21.23;;
15480;SDS011;7842;50.904;6.670;2023-06-01T05:48:49;30.80;;;21.60;;
15480;SDS011;7842;50.904;6.670;2023-06-01T05:51:16;29.53;;;21.90;;
15480;SDS011;7842;50.904;6.670;2023-06-01T05:53:42;35.58;;;23.80;;
15480;SDS011;7842;50.904;6.670;2023-06-01T05:56:08;33.75;;;23.90;;
15480;SDS011;7842;50.904;6.670;2023-06-01T05:58:33;34.07;;;25.83;;
15480;SDS011;7842;50.904;6.670;2023-06-01T06:00:59;37.40;;;27.17;;
15480;SDS011;7842;50.904;6.670;2023-06-01T06:03:25;41.90;;;28.45;;
15480;SDS011;7842;50.904;6.670;2023-06-01T06:05:51;57.65;;;37.22;;
15480;SDS011;7842;50.904;6.670;2023-06-01T06:08:17;59.03;;;38.17;;
15480;SDS011;7842;50.904;6.670;2023-06-01T06:10:42;58.50;;;38.93;;
15480;SDS011;7842;50.904;6.670;2023-06-01T06:13:08;65.13;;;39.28;;
15480;SDS011;7842;50.904;6.670;2023-06-01T06:15:34;61.92;;;38.00;;
15480;SDS011;7842;50.904;6.670;2023-06-01T06:18:00;63.85;;;38.70;;
15480;SDS011;7842;50.904;6.670;2023-06-01T06:20:25;66.90;;;41.60;;
15480;SDS011;7842;50.904;6.670;2023-06-01T06:22:51;69.83;;;42.83;;
15480;SDS011;7842;50.904;6.670;2023-06-01T06:25:18;69.03;;;41.53;;
15480;SDS011;7842;50.904;6.670;2023-06-01T06:27:44;66.30;;;41.80;;
15480;SDS011;7842;50.904;6.670;2023-06-01T06:30:10;66.47;;;40.80;;
15480;SDS011;7842;50.904;6.670;2023-06-01T06:32:36;65.60;;;39.90;;
15480;SDS011;7842;50.904;6.670;2023-06-01T06:35:02;70.97;;;43.77;;
15480;SDS011;7842;50.904;6.670;2023-06-01T06:37:28;74.65;;;43.97;;
15480;SDS011;7842;50.904;6.670;2023-06-01T06:39:55;71.60;;;44.37;;
15480;SDS011;7842;50.904;6.670;2023-06-01T06:42:21;72.55;;;44.42;;
15480;SDS011;7842;50.904;6.670;2023-06-01T06:44:47;74.83;;;44.83;;
15480;SDS011;7842;50.904;6.670;2023-06-01T06:47:13;72.50;;;44.00;;
15480;SDS011;7842;50.904;6.670;2023-06-01T06:49:43;75.72;;;45.17;;
15480;SDS011;7842;50.904;6.670;2023-06-01T06:52:09;77.40;;;46.05;;
15480;SDS011;7842;50.904;6.670;2023-06-01T06:54:35;74.17;;;46.60;;
15480;SDS011;7842;50.904;6.670;2023-06-01T06:57:05;73.20;;;45.53;;
15480;SDS011;7842;50.904;6.670;2023-06-01T06:59:32;73.30;;;46.75;;
15480;SDS011;7842;50.904;6.670;2023-06-01T07:01:58;79.57;;;48.47;;
15480;SDS011;7842;50.904;6.670;2023-06-01T07:04:23;72.67;;;46.47;;
15480;SDS011;7842;50.904;6.670;2023-06-01T07:06:49;74.60;;;47.13;;
15480;SDS011;7842;50.904;6.670;2023-06-01T07:09:16;79.07;;;49.10;;
15480;SDS011;7842;50.904;6.670;2023-06-01T07:11:42;78.10;;;49.30;;
15480;SDS011;7842;50.904;6.670;2023-06-01T07:14:08;78.80;;;49.03;;
15480;SDS011;7842;50.904;6.670;2023-06-01T07:16:33;80.60;;;50.05;;
15480;SDS011;7842;50.904;6.670;2023-06-01T07:18:59;82.65;;;49.65;;
15480;SDS011;7842;50.904;6.670;2023-06-01T07:21:25;77.60;;;47.87;;
15480;SDS011;7842;50.904;6.670;2023-06-01T07:23:51;78.50;;;48.53;;
15480;SDS011;7842;50.904;6.670;2023-06-01T07:26:16;83.10;;;48.73;;
15480;SDS011;7842;50.904;6.670;2023-06-01T07:28:42;83.03;;;51.43;;
15480;SDS011;7842;50.904;6.670;2023-06-01T07:31:08;83.63;;;52.00;;
15480;SDS011;7842;50.904;6.670;2023-06-01T07:33:34;81.80;;;51.90;;
15480;SDS011;7842;50.904;6.670;2023-06-01T07:36:01;84.85;;;50.90;;
15480;SDS011;7842;50.904;6.670;2023-06-01T07:38:27;78.73;;;48.27;;
15480;SDS011;7842;50.904;6.670;2023-06-01T07:40:52;76.50;;;47.83;;
15480;SDS011;7842;50.904;6.670;2023-06-01T07:43:18;81.38;;;49.55;;
15480;SDS011;7842;50.904;6.670;2023-06-01T07:45:44;78.00;;;49.55;;
15480;SDS011;7842;50.904;6.670;2023-06-01T07:48:09;76.33;;;48.27;;
15480;SDS011;7842;50.904;6.670;2023-06-01T07:50:35;78.47;;;49.00;;
15480;SDS011;7842;50.904;6.670;2023-06-01T07:53:01;76.97;;;48.88;;
15480;SDS011;7842;50.904;6.670;2023-06-01T07:55:27;74.80;;;47.42;;
15480;SDS011;7842;50.904;6.670;2023-06-01T07:57:53;77.78;;;48.95;;
15480;SDS011;7842;50.904;6.670;2023-06-01T08:00:19;79.37;;;49.73;;
15480;SDS011;7842;50.904;6.670;2023-06-01T08:02:45;78.00;;;48.78;;
15480;SDS011;7842;50.904;6.670;2023-06-01T08:05:10;76.53;;;50.17;;
15480;SDS011;7842;50.904;6.670;2023-06-01T08:07:37;78.60;;;50.50;;
15480;SDS011;7842;50.904;6.670;2023-06-01T08:10:04;76.40;;;49.45;;
15480;SDS011;7842;50.904;6.670;2023-06-01T08:12:30;78.57;;;49.83;;
15480;SDS011;7842;50.904;6.670;2023-06-01T08:14:57;75.37;;;48.93;;
15480;SDS011;7842;50.904;6.670;2023-06-01T08:17:23;76.70;;;49.35;;
15480;SDS011;7842;50.904;6.670;2023-06-01T08:19:49;74.47;;;48.22;;
15480;SDS011;7842;50.904;6.670;2023-06-01T08:22:16;69.95;;;45.05;;
15480;SDS011;7842;50.904;6.670;2023-06-01T08:24:42;68.10;;;44.85;;
15480;SDS011;7842;50.904;6.670;2023-06-01T08:27:17;68.13;;;45.10;;
15480;SDS011;7842;50.904;6.670;2023-06-01T08:29:48;64.03;;;42.65;;
15480;SDS011;7842;50.904;6.670;2023-06-01T08:32:14;65.55;;;43.40;;
15480;SDS011;7842;50.904;6.670;2023-06-01T08:34:42;62.17;;;41.90;;
15480;SDS011;7842;50.904;6.670;2023-06-01T08:37:08;61.92;;;41.88;;
15480;SDS011;7842;50.904;6.670;2023-06-01T08:39:34;63.13;;;43.08;;
15480;SDS011;7842;50.904;6.670;2023-06-01T08:42:07;64.10;;;42.58;;
15480;SDS011;7842;50.904;6.670;2023-06-01T08:44:40;61.05;;;41.30;;
15480;SDS011;7842;50.904;6.670;2023-06-01T08:47:07;61.47;;;42.83;;
15480;SDS011;7842;50.904;6.670;2023-06-01T08:49:33;60.80;;;42.15;;
15480;SDS011;7842;50.904;6.670;2023-06-01T08:52:01;59.92;;;41.63;;
15480;SDS011;7842;50.904;6.670;2023-06-01T08:54:32;60.95;;;41.10;;
15480;SDS011;7842;50.904;6.670;2023-06-01T08:57:01;59.85;;;40.88;;
15480;SDS011;7842;50.904;6.670;2023-06-01T08:59:29;59.72;;;41.42;;
15480;SDS011;7842;50.904;6.670;2023-06-01T09:01:55;59.23;;;40.80;;
15480;SDS011;7842;50.904;6.670;2023-06-01T09:04:22;54.55;;;38.10;;
15480;SDS011;7842;50.904;6.670;2023-06-01T09:06:48;60.87;;;42.30;;
15480;SDS011;7842;50.904;6.670;2023-06-01T09:09:14;53.60;;;38.20;;
15480;SDS011;7842;50.904;6.670;2023-06-01T09:11:39;52.45;;;36.15;;
15480;SDS011;7842;50.904;6.670;2023-06-01T09:14:18;53.95;;;37.15;;
15480;SDS011;7842;50.904;6.670;2023-06-01T09:16:48;53.58;;;36.38;;
15480;SDS011;7842;50.904;6.670;2023-06-01T09:19:15;50.42;;;35.75;;
15480;SDS011;7842;50.904;6.670;2023-06-01T09:21:57;50.93;;;35.30;;
15480;SDS011;7842;50.904;6.670;2023-06-01T09:24:23;52.40;;;36.73;;
15480;SDS011;7842;50.904;6.670;2023-06-01T09:26:49;51.45;;;36.17;;
15480;SDS011;7842;50.904;6.670;2023-06-01T09:29:15;49.05;;;34.38;;
15480;SDS011;7842;50.904;6.670;2023-06-01T09:31:45;50.10;;;35.33;;
15480;SDS011;7842;50.904;6.670;2023-06-01T09:34:12;54.20;;;36.25;;
15480;SDS011;7842;50.904;6.670;2023-06-01T09:36:44;48.38;;;34.80;;
15480;SDS011;7842;50.904;6.670;2023-06-01T09:39:21;50.95;;;34.20;;
15480;SDS011;7842;50.904;6.670;2023-06-01T09:41:57;46.00;;;32.15;;
15480;SDS011;7842;50.904;6.670;2023-06-01T09:44:24;49.50;;;33.67;;
15480;SDS011;7842;50.904;6.670;2023-06-01T09:46:54;45.45;;;32.67;;
15480;SDS011;7842;50.904;6.670;2023-06-01T09:49:30;46.92;;;33.35;;
15480;SDS011;7842;50.904;6.670;2023-06-01T09:52:18;46.28;;;33.53;;
15480;SDS011;7842;50.904;6.670;2023-06-01T09:54:44;48.47;;;31.55;;
15480;SDS011;7842;50.904;6.670;2023-06-01T09:57:11;44.55;;;32.05;;
15480;SDS011;7842;50.904;6.670;2023-06-01T09:59:44;46.65;;;32.63;;
15480;SDS011;7842;50.904;6.670;2023-06-01T10:02:12;46.15;;;32.25;;
15480;SDS011;7842;50.904;6.670;2023-06-01T10:04:47;43.55;;;30.42;;
15480;SDS011;7842;50.904;6.670;2023-06-01T10:07:14;45.15;;;30.30;;
15480;SDS011;7842;50.904;6.670;2023-06-01T10:09:42;43.22;;;29.02;;
15480;SDS011;7842;50.904;6.670;2023-06-01T10:12:10;41.65;;;29.73;;
15480;SDS011;7842;50.904;6.670;2023-06-01T10:14:39;40.33;;;29.27;;
15480;SDS011;7842;50.904;6.670;2023-06-01T10:17:05;40.13;;;28.63;;
15480;SDS011;7842;50.904;6.670;2023-06-01T10:19:31;41.10;;;28.90;;
15480;SDS011;7842;50.904;6.670;2023-06-01T10:21:59;40.05;;;28.15;;
15480;SDS011;7842;50.904;6.670;2023-06-01T10:24:25;38.28;;;27.52;;
15480;SDS011;7842;50.904;6.670;2023-06-01T10:26:56;34.65;;;26.05;;
15480;SDS011;7842;50.904;6.670;2023-06-01T10:29:30;35.20;;;26.38;;
15480;SDS011;7842;50.904;6.670;2023-06-01T10:31:57;34.15;;;25.27;;
15480;SDS011;7842;50.904;6.670;2023-06-01T10:34:39;33.33;;;24.42;;
15480;SDS011;7842;50.904;6.670;2023-06-01T10:39:33;34.53;;;24.77;;
15480;SDS011;7842;50.904;6.670;2023-06-01T10:47:03;31.67;;;22.70;;
15480;SDS011;7842;50.904;6.670;2023-06-01T10:52:24;28.35;;;20.05;;
15480;SDS011;7842;50.904;6.670;2023-06-01T10:54:50;26.48;;;20.60;;
15480;SDS011;7842;50.904;6.670;2023-06-01T10:57:17;29.03;;;20.93;;
15480;SDS011;7842;50.904;6.670;2023-06-01T11:00:08;28.35;;;21.70;;
15480;SDS011;7842;50.904;6.670;2023-06-01T11:21:17;20.53;;;15.07;;
15480;SDS011;7842;50.904;6.670;2023-06-01T11:23:43;20.35;;;14.88;;
15480;SDS011;7842;50.904;6.670;2023-06-01T11:26:10;22.05;;;14.73;;
15480;SDS011;7842;50.904;6.670;2023-06-01T11:28:43;20.40;;;14.95;;
15480;SDS011;7842;50.904;6.670;2023-06-01T11:31:16;18.73;;;12.73;;
15480;SDS011;7842;50.904;6.670;2023-06-01T11:33:51;18.90;;;13.27;;
15480;SDS011;7842;50.904;6.670;2023-06-01T11:36:22;17.20;;;13.15;;
15480;SDS011;7842;50.904;6.670;2023-06-01T11:38:51;16.95;;;12.50;;
15480;SDS011;7842;50.904;6.670;2023-06-01T11:41:24;17.80;;;12.85;;
15480;SDS011;7842;50.904;6.670;2023-06-01T11:43:56;18.00;;;12.70;;
15480;SDS011;7842;50.904;6.670;2023-06-01T11:46:25;15.88;;;12.13;;
15480;SDS011;7842;50.904;6.670;2023-06-01T11:48:58;17.35;;;11.45;;
15480;SDS011;7842;50.904;6.670;2023-06-01T11:51:34;18.73;;;12.68;;
15480;SDS011;7842;50.904;6.670;2023-06-01T11:54:01;18.17;;;11.57;;
15480;SDS011;7842;50.904;6.670;2023-06-01T11:56:31;15.35;;;10.57;;
15480;SDS011;7842;50.904;6.670;2023-06-01T11:59:02;15.97;;;11.03;;
15480;SDS011;7842;50.904;6.670;2023-06-01T12:01:42;16.15;;;10.52;;
15480;SDS011;7842;50.904;6.670;2023-06-01T12:04:12;14.97;;;10.27;;
15480;SDS011;7842;50.904;6.670;2023-06-01T12:06:38;14.63;;;10.50;;
15480;SDS011;7842;50.904;6.670;2023-06-01T12:09:04;14.37;;;10.07;;
15480;SDS011;7842;50.904;6.670;2023-06-01T12:11:31;12.63;;;9.05;;
15480;SDS011;7842;50.904;6.670;2023-06-01T12:13:58;13.73;;;9.90;;
15480;SDS011;7842;50.904;6.670;2023-06-01T12:16:24;14.30;;;10.40;;
15480;SDS011;7842;50.904;6.670;2023-06-01T12:18:53;17.08;;;11.05;;
15480;SDS011;7842;50.904;6.670;2023-06-01T12:21:19;13.43;;;10.25;;
15480;SDS011;7842;50.904;6.670;2023-06-01T12:23:49;12.63;;;9.00;;
15480;SDS011;7842;50.904;6.670;2023-06-01T12:26:18;13.63;;;9.15;;
15480;SDS011;7842;50.904;6.670;2023-06-01T12:28:47;12.88;;;9.77;;
15480;SDS011;7842;50.904;6.670;2023-06-01T12:31:16;13.25;;;8.40;;
15480;SDS011;7842;50.904;6.670;2023-06-01T12:33:43;13.13;;;9.65;;
15480;SDS011;7842;50.904;6.670;2023-06-01T12:36:09;13.15;;;9.20;;
15480;SDS011;7842;50.904;6.670;2023-06-01T12:38:49;12.85;;;9.13;;
15480;SDS011;7842;50.904;6.670;2023-06-01T12:41:15;13.77;;;9.70;;
15480;SDS011;7842;50.904;6.670;2023-06-01T12:43:46;11.90;;;7.95;;
15480;SDS011;7842;50.904;6.670;2023-06-01T12:46:26;13.32;;;8.45;;
15480;SDS011;7842;50.904;6.670;2023-06-01T12:48:54;12.50;;;8.50;;
15480;SDS011;7842;50.904;6.670;2023-06-01T12:51:36;13.10;;;9.10;;
15480;SDS011;7842;50.904;6.670;2023-06-01T12:54:02;13.52;;;9.15;;
15480;SDS011;7842;50.904;6.670;2023-06-01T12:56:28;12.38;;;8.70;;
15480;SDS011;7842;50.904;6.670;2023-06-01T12:58:54;13.35;;;9.32;;
15480;SDS011;7842;50.904;6.670;2023-06-01T13:01:20;13.68;;;8.52;;
15480;SDS011;7842;50.904;6.670;2023-06-01T13:03:46;12.70;;;9.00;;
15480;SDS011;7842;50.904;6.670;2023-06-01T13:06:12;12.38;;;7.80;;
15480;SDS011;7842;50.904;6.670;2023-06-01T13:08:41;14.63;;;10.05;;
15480;SDS011;7842;50.904;6.670;2023-06-01T13:11:07;13.15;;;9.18;;
15480;SDS011;7842;50.904;6.670;2023-06-01T13:13:33;12.05;;;8.57;;
15480;SDS011;7842;50.904;6.670;2023-06-01T13:15:59;10.32;;;7.75;;
15480;SDS011;7842;50.904;6.670;2023-06-01T13:18:26;13.18;;;8.95;;
15480;SDS011;7842;50.904;6.670;2023-06-01T13:20:52;12.27;;;9.48;;
15480;SDS011;7842;50.904;6.670;2023-06-01T13:23:18;12.23;;;9.10;;
15480;SDS011;7842;50.904;6.670;2023-06-01T13:25:43;15.23;;;9.40;;
15480;SDS011;7842;50.904;6.670;2023-06-01T13:28:09;13.13;;;8.95;;
15480;SDS011;7842;50.904;6.670;2023-06-01T13:30:36;15.57;;;8.55;;
15480;SDS011;7842;50.904;6.670;2023-06-01T13:33:03;13.13;;;8.67;;
15480;SDS011;7842;50.904;6.670;2023-06-01T13:35:29;11.85;;;8.52;;
15480;SDS011;7842;50.904;6.670;2023-06-01T13:37:55;13.82;;;8.63;;
15480;SDS011;7842;50.904;6.670;2023-06-01T13:40:21;11.53;;;8.87;;
15480;SDS011;7842;50.904;6.670;2023-06-01T13:42:50;13.68;;;9.07;;
15480;SDS011;7842;50.904;6.670;2023-06-01T13:45:20;13.10;;;9.05;;
15480;SDS011;7842;50.904;6.670;2023-06-01T13:47:46;12.30;;;8.80;;
15480;SDS011;7842;50.904;6.670;2023-06-01T13:50:13;12.27;;;8.07;;
15480;SDS011;7842;50.904;6.670;2023-06-01T13:52:39;14.43;;;9.77;;
15480;SDS011;7842;50.904;6.670;2023-06-01T13:55:06;13.77;;;9.50;;
15480;SDS011;7842;50.904;6.670;2023-06-01T13:57:33;13.70;;;9.27;;
15480;SDS011;7842;50.904;6.670;2023-06-01T14:00:00;11.05;;;8.60;;
15480;SDS011;7842;50.904;6.670;2023-06-01T14:02:26;12.57;;;7.95;;
15480;SDS011;7842;50.904;6.670;2023-06-01T14:04:52;14.73;;;9.00;;
15480;SDS011;7842;50.904;6.670;2023-06-01T14:07:17;13.27;;;8.65;;
15480;SDS011;7842;50.904;6.670;2023-06-01T14:09:43;14.50;;;9.48;;
15480;SDS011;7842;50.904;6.670;2023-06-01T14:12:09;14.67;;;9.70;;
15480;SDS011;7842;50.904;6.670;2023-06-01T14:14:36;15.37;;;8.90;;
15480;SDS011;7842;50.904;6.670;2023-06-01T14:17:02;16.65;;;9.30;;
15480;SDS011;7842;50.904;6.670;2023-06-01T14:19:28;15.02;;;8.65;;
15480;SDS011;7842;50.904;6.670;2023-06-01T14:21:54;12.85;;;8.50;;
15480;SDS011;7842;50.904;6.670;2023-06-01T14:24:19;13.57;;;8.13;;
15480;SDS011;7842;50.904;6.670;2023-06-01T14:26:45;12.70;;;8.30;;
15480;SDS011;7842;50.904;6.670;2023-06-01T14:29:11;13.32;;;8.10;;
15480;SDS011;7842;50.904;6.670;2023-06-01T14:31:37;13.90;;;8.60;;
15480;SDS011;7842;50.904;6.670;2023-06-01T14:34:02;12.70;;;7.78;;
15480;SDS011;7842;50.904;6.670;2023-06-01T14:36:28;12.30;;;8.02;;
15480;SDS011;7842;50.904;6.670;2023-06-01T14:38:55;13.70;;;8.18;;
15480;SDS011;7842;50.904;6.670;2023-06-01T14:41:21;12.77;;;6.85;;
15480;SDS011;7842;50.904;6.670;2023-06-01T14:43:46;12.23;;;8.03;;
15480;SDS011;7842;50.904;6.670;2023-06-01T14:46:12;10.35;;;6.72;;
15480;SDS011;7842;50.904;6.670;2023-06-01T14:48:37;10.80;;;7.50;;
15480;SDS011;7842;50.904;6.670;2023-06-01T14:51:03;11.63;;;6.78;;
15480;SDS011;7842;50.904;6.670;2023-06-01T14:53:29;9.63;;;6.97;;
15480;SDS011;7842;50.904;6.670;2023-06-01T14:55:54;10.82;;;7.03;;
15480;SDS011;7842;50.904;6.670;2023-06-01T14:58:20;10.70;;;7.47;;
15480;SDS011;7842;50.904;6.670;2023-06-01T15:00:45;10.90;;;7.38;;
15480;SDS011;7842;50.904;6.670;2023-06-01T15:03:13;16.30;;;7.85;;
15480;SDS011;7842;50.904;6.670;2023-06-01T15:05:38;12.70;;;7.53;;
15480;SDS011;7842;50.904;6.670;2023-06-01T15:08:05;11.30;;;7.93;;
15480;SDS011;7842;50.904;6.670;2023-06-01T15:10:32;10.93;;;7.88;;
15480;SDS011;7842;50.904;6.670;2023-06-01T15:12:57;12.38;;;8.13;;
15480;SDS011;7842;50.904;6.670;2023-06-01T15:15:23;11.67;;;8.33;;
15480;SDS011;7842;50.904;6.670;2023-06-01T15:17:49;11.25;;;8.23;;
15480;SDS011;7842;50.904;6.670;2023-06-01T15:20:14;11.63;;;8.15;;
15480;SDS011;7842;50.904;6.670;2023-06-01T15:22:40;14.00;;;7.90;;
15480;SDS011;7842;50.904;6.670;2023-06-01T15:25:06;12.57;;;7.75;;
15480;SDS011;7842;50.904;6.670;2023-06-01T15:27:32;11.95;;;7.97;;